createdAt,value
2017-10-15T00:00:01.255Z,0
2017-10-15T00:01:10.123Z,0
2017-10-15T00:02:19.583Z,0
2017-10-15T00:03:28.944Z,0
2017-10-15T00:04:37.826Z,0
2017-10-15T00:05:46.821Z,0
2017-10-15T00:06:55.678Z,0
2017-10-15T00:08:04.676Z,0
2017-10-15T00:09:13.515Z,0
2017-10-15T00:10:22.401Z,0
2017-10-15T00:11:31.577Z,0
2017-10-15T00:12:40.869Z,0
2017-10-15T00:13:49.757Z,0
2017-10-15T00:14:58.598Z,0
2017-10-15T00:16:07.447Z,0
2017-10-15T00:17:16.461Z,0
2017-10-15T00:18:25.889Z,0
2017-10-15T00:19:34.752Z,0
2017-10-15T00:20:43.622Z,0
2017-10-15T00:21:52.572Z,0
2017-10-15T00:23:01.415Z,0
2017-10-15T00:24:10.259Z,0
2017-10-15T00:25:19.128Z,0
2017-10-15T00:26:28.424Z,0
2017-10-15T00:27:37.385Z,0
2017-10-15T00:28:46.613Z,0
2017-10-15T00:29:55.570Z,0
2017-10-15T00:31:04.504Z,0
2017-10-15T00:32:13.367Z,0
2017-10-15T00:33:22.214Z,0
2017-10-15T00:34:31.399Z,0
2017-10-15T00:35:40.249Z,0
2017-10-15T00:36:49.844Z,0
2017-10-15T00:37:58.715Z,0
2017-10-15T00:39:07.909Z,0
2017-10-15T00:40:16.859Z,0
2017-10-15T00:41:26.082Z,0
2017-10-15T00:42:35.252Z,0
2017-10-15T00:43:44.094Z,0
2017-10-15T00:44:52.970Z,0
2017-10-15T00:46:01.818Z,0
2017-10-15T00:47:10.707Z,0
2017-10-15T00:48:20.068Z,0
2017-10-15T00:49:28.915Z,0
2017-10-15T00:50:37.763Z,0
2017-10-15T00:51:46.690Z,0
2017-10-15T00:52:55.535Z,0
2017-10-15T00:54:04.549Z,0
2017-10-15T00:55:13.495Z,0
2017-10-15T00:56:22.334Z,0
2017-10-15T00:57:31.175Z,0
2017-10-15T00:58:40.173Z,0
2017-10-15T00:59:49.022Z,0
2017-10-15T01:00:57.920Z,0
2017-10-15T01:02:06.776Z,0
2017-10-15T01:03:15.633Z,0
2017-10-15T01:04:24.546Z,0
2017-10-15T01:05:33.913Z,0
2017-10-15T01:06:43.032Z,0
2017-10-15T01:07:51.958Z,0
2017-10-15T01:09:00.919Z,0
2017-10-15T01:10:09.758Z,0
2017-10-15T01:11:18.598Z,0
2017-10-15T01:12:27.595Z,0
2017-10-15T01:13:36.666Z,0
2017-10-15T01:14:45.957Z,0
2017-10-15T01:15:54.877Z,0
2017-10-15T01:17:03.939Z,0
2017-10-15T01:18:12.835Z,0
2017-10-15T01:19:21.748Z,0
2017-10-15T01:20:30.592Z,0
2017-10-15T01:21:39.438Z,0
2017-10-15T01:22:48.965Z,0
2017-10-15T01:23:57.967Z,0
2017-10-15T01:25:06.951Z,0
2017-10-15T01:26:15.857Z,0
2017-10-15T01:27:24.957Z,0
2017-10-15T01:28:34.192Z,0
2017-10-15T01:29:43.239Z,0
2017-10-15T01:30:52.115Z,0
2017-10-15T01:32:01.282Z,0
2017-10-15T01:33:10.484Z,0
2017-10-15T01:34:19.514Z,0
2017-10-15T01:35:28.765Z,0
2017-10-15T01:36:37.606Z,0
2017-10-15T01:37:46.446Z,0
2017-10-15T01:38:55.432Z,0
2017-10-15T01:40:04.269Z,0
2017-10-15T01:41:13.278Z,0
2017-10-15T01:42:22.142Z,0
2017-10-15T01:43:31.384Z,0
2017-10-15T01:44:40.359Z,0
2017-10-15T01:45:49.206Z,0
2017-10-15T01:46:58.044Z,0
2017-10-15T01:48:07.278Z,0
2017-10-15T01:49:16.651Z,0
2017-10-15T01:50:25.492Z,0
2017-10-15T01:51:34.329Z,0
2017-10-15T01:52:43.172Z,0
2017-10-15T01:53:52.066Z,0
2017-10-15T01:55:01.017Z,0
2017-10-15T01:56:10.002Z,0
2017-10-15T01:57:18.911Z,0
2017-10-15T01:58:27.896Z,0
2017-10-15T01:59:37.092Z,0
2017-10-15T02:00:45.934Z,0
2017-10-15T02:01:54.855Z,0
2017-10-15T02:03:03.697Z,0
2017-10-15T02:04:12.538Z,0
2017-10-15T02:05:21.434Z,0
2017-10-15T02:06:30.284Z,0
2017-10-15T02:07:39.122Z,0
2017-10-15T02:08:48.326Z,0
2017-10-15T02:09:57.170Z,0
2017-10-15T02:11:06.352Z,0
2017-10-15T02:12:15.388Z,0
2017-10-15T02:13:24.232Z,0
2017-10-15T02:14:33.093Z,0
2017-10-15T02:15:41.947Z,0
2017-10-15T02:16:50.779Z,0
2017-10-15T02:17:59.627Z,0
2017-10-15T02:19:08.457Z,0
2017-10-15T02:20:17.302Z,0
2017-10-15T02:21:26.171Z,0
2017-10-15T02:22:35.677Z,0
2017-10-15T02:23:44.853Z,0
2017-10-15T02:24:53.781Z,0
2017-10-15T02:26:03.064Z,0
2017-10-15T02:27:12.025Z,0
2017-10-15T02:28:21.227Z,0
2017-10-15T02:29:30.065Z,0
2017-10-15T02:30:38.909Z,0
2017-10-15T02:31:47.748Z,0
2017-10-15T02:32:56.586Z,0
2017-10-15T02:34:05.437Z,0
2017-10-15T02:35:14.274Z,0
2017-10-15T02:36:23.117Z,0
2017-10-15T02:37:32.297Z,0
2017-10-15T02:38:41.140Z,0
2017-10-15T02:39:50.042Z,0
2017-10-15T02:40:59.129Z,0
2017-10-15T02:42:08.099Z,0
2017-10-15T02:43:16.934Z,0
2017-10-15T02:44:26.158Z,0
2017-10-15T02:45:35.008Z,0
2017-10-15T02:46:43.847Z,0
2017-10-15T02:47:52.688Z,0
2017-10-15T02:49:01.527Z,0
2017-10-15T02:50:10.379Z,0
2017-10-15T02:51:19.213Z,0
2017-10-15T02:52:28.049Z,0
2017-10-15T02:53:36.886Z,0
2017-10-15T02:54:45.727Z,0
2017-10-15T02:55:54.906Z,0
2017-10-15T02:57:03.748Z,0
2017-10-15T02:58:12.588Z,0
2017-10-15T02:59:21.430Z,0
2017-10-15T03:00:30.263Z,0
2017-10-15T03:01:39.104Z,0
2017-10-15T03:02:47.944Z,0
2017-10-15T03:03:56.782Z,0
2017-10-15T03:05:05.627Z,0
2017-10-15T03:06:14.468Z,0
2017-10-15T03:07:23.309Z,0
2017-10-15T03:08:32.142Z,0
2017-10-15T03:09:40.982Z,0
2017-10-15T03:10:49.821Z,0
2017-10-15T03:11:58.668Z,0
2017-10-15T03:13:07.504Z,0
2017-10-15T03:14:16.346Z,0
2017-10-15T03:15:25.185Z,0
2017-10-15T03:16:34.020Z,0
2017-10-15T03:17:42.865Z,0
2017-10-15T03:18:51.705Z,0
2017-10-15T03:20:00.543Z,0
2017-10-15T03:21:09.381Z,0
2017-10-15T03:22:18.226Z,0
2017-10-15T03:23:27.065Z,0
2017-10-15T03:24:35.908Z,0
2017-10-15T03:25:44.746Z,0
2017-10-15T03:26:53.586Z,0
2017-10-15T03:28:02.442Z,0
2017-10-15T03:29:11.271Z,0
2017-10-15T03:30:20.117Z,0
2017-10-15T03:31:28.956Z,0
2017-10-15T03:32:37.797Z,0
2017-10-15T03:33:46.634Z,0
2017-10-15T03:34:55.472Z,0
2017-10-15T03:36:04.316Z,0
2017-10-15T03:37:13.155Z,0
2017-10-15T03:38:21.995Z,0
2017-10-15T03:39:30.840Z,0
2017-10-15T03:40:39.721Z,0
2017-10-15T03:41:48.552Z,0
2017-10-15T03:42:57.392Z,0
2017-10-15T03:44:06.227Z,0
2017-10-15T03:45:15.070Z,0
2017-10-15T03:46:23.908Z,0
2017-10-15T03:47:32.736Z,0
2017-10-15T03:48:41.578Z,0
2017-10-15T03:49:50.408Z,0
2017-10-15T03:50:59.579Z,0
2017-10-15T03:52:08.418Z,0
2017-10-15T03:53:17.253Z,0
2017-10-15T03:54:26.085Z,0
2017-10-15T03:55:35.262Z,0
2017-10-15T03:56:44.104Z,0
2017-10-15T03:57:52.934Z,0
2017-10-15T03:59:01.775Z,0
2017-10-15T04:00:10.608Z,0
2017-10-15T04:01:19.447Z,0
2017-10-15T04:02:28.279Z,0
2017-10-15T04:03:37.116Z,0
2017-10-15T04:04:45.951Z,0
2017-10-15T04:05:55.153Z,0
2017-10-15T04:07:03.983Z,0
2017-10-15T04:08:12.818Z,0
2017-10-15T04:09:21.650Z,0
2017-10-15T04:10:30.491Z,0
2017-10-15T04:11:39.328Z,0
2017-10-15T04:12:48.168Z,0
2017-10-15T04:13:57.001Z,0
2017-10-15T04:15:05.836Z,0
2017-10-15T04:16:14.669Z,0
2017-10-15T04:17:23.508Z,0
2017-10-15T04:18:32.346Z,0
2017-10-15T04:19:41.176Z,0
2017-10-15T04:20:50.016Z,0
2017-10-15T04:21:58.856Z,0
2017-10-15T04:23:07.685Z,0
2017-10-15T04:24:16.527Z,0
2017-10-15T04:25:25.363Z,0
2017-10-15T04:26:34.204Z,0
2017-10-15T04:27:43.035Z,0
2017-10-15T04:28:51.871Z,0
2017-10-15T04:30:00.705Z,0
2017-10-15T04:31:09.540Z,0
2017-10-15T04:32:18.377Z,0
2017-10-15T04:33:27.211Z,0
2017-10-15T04:34:36.048Z,0
2017-10-15T04:35:44.884Z,0
2017-10-15T04:36:53.718Z,0
2017-10-15T04:38:02.556Z,0
2017-10-15T04:39:11.390Z,0
2017-10-15T04:40:20.231Z,0
2017-10-15T04:41:29.067Z,0
2017-10-15T04:42:37.902Z,0
2017-10-15T04:43:46.734Z,0
2017-10-15T04:44:55.572Z,0
2017-10-15T04:46:04.412Z,0
2017-10-15T04:47:13.249Z,0
2017-10-15T04:48:22.084Z,0
2017-10-15T04:49:30.917Z,0
2017-10-15T04:50:39.754Z,0
2017-10-15T04:51:48.595Z,0
2017-10-15T04:52:57.431Z,0
2017-10-15T04:54:06.265Z,0
2017-10-15T04:55:15.096Z,0
2017-10-15T04:56:23.937Z,0
2017-10-15T04:57:32.769Z,0
2017-10-15T04:58:41.613Z,0
2017-10-15T04:59:50.440Z,0
2017-10-15T05:00:59.277Z,0
2017-10-15T05:02:08.118Z,0
2017-10-15T05:03:16.951Z,0
2017-10-15T05:04:25.788Z,0
2017-10-15T05:05:34.619Z,0
2017-10-15T05:06:43.451Z,0
2017-10-15T05:07:52.286Z,0
2017-10-15T05:09:01.124Z,0
2017-10-15T05:10:09.957Z,0
2017-10-15T05:11:18.797Z,0
2017-10-15T05:12:27.629Z,0
2017-10-15T05:13:36.468Z,0
2017-10-15T05:14:45.302Z,0
2017-10-15T05:15:54.472Z,0
2017-10-15T05:17:03.310Z,0
2017-10-15T05:18:12.145Z,0
2017-10-15T05:19:20.981Z,0
2017-10-15T05:20:29.822Z,0
2017-10-15T05:21:38.654Z,0
2017-10-15T05:22:47.491Z,0
2017-10-15T05:23:56.328Z,0
2017-10-15T05:25:05.161Z,0
2017-10-15T05:26:13.995Z,0
2017-10-15T05:27:23.176Z,0
2017-10-15T05:28:32.015Z,0
2017-10-15T05:29:40.852Z,0
2017-10-15T05:30:49.687Z,0
2017-10-15T05:31:58.527Z,0
2017-10-15T05:33:07.361Z,0
2017-10-15T05:34:16.203Z,0
2017-10-15T05:35:25.030Z,0
2017-10-15T05:36:33.868Z,0
2017-10-15T05:37:42.704Z,0
2017-10-15T05:38:51.541Z,0
2017-10-15T05:40:00.377Z,0
2017-10-15T05:41:09.219Z,0
2017-10-15T05:42:18.052Z,0
2017-10-15T05:43:27.219Z,0
2017-10-15T05:44:36.051Z,0
2017-10-15T05:45:44.883Z,0
2017-10-15T05:46:53.719Z,0
2017-10-15T05:48:02.552Z,0
2017-10-15T05:49:11.388Z,0
2017-10-15T05:50:20.232Z,0
2017-10-15T05:51:29.064Z,5
2017-10-15T05:52:37.899Z,5
2017-10-15T05:53:46.737Z,5
2017-10-15T05:54:55.572Z,5
2017-10-15T05:56:04.741Z,5
2017-10-15T05:57:13.580Z,5
2017-10-15T05:58:22.419Z,5
2017-10-15T05:59:31.255Z,5
2017-10-15T06:00:40.089Z,5
2017-10-15T06:01:48.929Z,5
2017-10-15T06:02:58.103Z,5
2017-10-15T06:04:06.945Z,5
2017-10-15T06:05:15.777Z,5
2017-10-15T06:06:24.613Z,5
2017-10-15T06:07:33.447Z,5
2017-10-15T06:08:42.284Z,5
2017-10-15T06:09:51.122Z,5
2017-10-15T06:10:59.959Z,5
2017-10-15T06:12:08.796Z,5
2017-10-15T06:13:17.630Z,5
2017-10-15T06:14:26.465Z,10
2017-10-15T06:15:35.306Z,10
2017-10-15T06:16:44.138Z,10
2017-10-15T06:17:52.977Z,10
2017-10-15T06:19:01.808Z,10
2017-10-15T06:20:10.646Z,10
2017-10-15T06:21:19.478Z,10
2017-10-15T06:22:28.316Z,10
2017-10-15T06:23:37.149Z,10
2017-10-15T06:24:45.989Z,10
2017-10-15T06:25:54.817Z,10
2017-10-15T06:27:03.652Z,10
2017-10-15T06:28:12.489Z,10
2017-10-15T06:29:21.331Z,10
2017-10-15T06:30:30.162Z,10
2017-10-15T06:31:39.005Z,10
2017-10-15T06:32:47.833Z,15
2017-10-15T06:33:56.671Z,15
2017-10-15T06:35:05.510Z,15
2017-10-15T06:36:14.348Z,15
2017-10-15T06:37:23.191Z,15
2017-10-15T06:38:32.011Z,15
2017-10-15T06:39:40.847Z,15
2017-10-15T06:40:49.683Z,15
2017-10-15T06:41:58.526Z,15
2017-10-15T06:43:07.358Z,15
2017-10-15T06:44:16.191Z,15
2017-10-15T06:45:25.032Z,15
2017-10-15T06:46:33.866Z,15
2017-10-15T06:47:42.705Z,15
2017-10-15T06:48:51.538Z,15
2017-10-15T06:50:00.377Z,15
2017-10-15T06:51:09.211Z,15
2017-10-15T06:52:18.042Z,15
2017-10-15T06:53:26.880Z,15
2017-10-15T06:54:35.715Z,15
2017-10-15T06:55:44.551Z,20
2017-10-15T06:56:53.392Z,20
2017-10-15T06:58:02.227Z,20
2017-10-15T06:59:11.063Z,20
2017-10-15T07:00:19.897Z,20
2017-10-15T07:01:28.736Z,20
2017-10-15T07:02:37.570Z,20
2017-10-15T07:03:46.401Z,20
2017-10-15T07:04:55.239Z,20
2017-10-15T07:06:04.077Z,20
2017-10-15T07:07:12.913Z,20
2017-10-15T07:08:22.087Z,20
2017-10-15T07:09:30.920Z,20
2017-10-15T07:10:39.752Z,20
2017-10-15T07:11:48.588Z,20
2017-10-15T07:12:57.430Z,20
2017-10-15T07:14:06.271Z,20
2017-10-15T07:15:15.106Z,20
2017-10-15T07:16:23.946Z,20
2017-10-15T07:17:32.784Z,20
2017-10-15T07:18:41.620Z,20
2017-10-15T07:19:50.462Z,20
2017-10-15T07:20:59.291Z,25
2017-10-15T07:22:08.121Z,25
2017-10-15T07:23:16.959Z,25
2017-10-15T07:24:25.798Z,25
2017-10-15T07:25:34.637Z,25
2017-10-15T07:26:43.471Z,25
2017-10-15T07:27:52.303Z,25
2017-10-15T07:29:01.147Z,25
2017-10-15T07:30:09.982Z,25
2017-10-15T07:31:18.819Z,25
2017-10-15T07:32:27.655Z,25
2017-10-15T07:33:36.490Z,25
2017-10-15T07:34:45.327Z,25
2017-10-15T07:35:54.162Z,25
2017-10-15T07:37:03.340Z,25
2017-10-15T07:38:12.170Z,30
2017-10-15T07:39:21.007Z,30
2017-10-15T07:40:29.843Z,30
2017-10-15T07:41:38.681Z,30
2017-10-15T07:42:47.516Z,30
2017-10-15T07:43:56.354Z,30
2017-10-15T07:45:05.191Z,30
2017-10-15T07:46:14.028Z,30
2017-10-15T07:47:22.870Z,30
2017-10-15T07:48:31.702Z,30
2017-10-15T07:49:40.536Z,30
2017-10-15T07:50:49.370Z,25
2017-10-15T07:51:58.207Z,25
2017-10-15T07:53:07.042Z,25
2017-10-15T07:54:15.886Z,25
2017-10-15T07:55:24.726Z,25
2017-10-15T07:56:33.558Z,25
2017-10-15T07:57:42.396Z,30
2017-10-15T07:58:51.229Z,30
2017-10-15T08:00:00.073Z,30
2017-10-15T08:01:09.248Z,30
2017-10-15T08:02:18.083Z,30
2017-10-15T08:03:26.924Z,30
2017-10-15T08:04:35.764Z,30
2017-10-15T08:05:44.599Z,30
2017-10-15T08:06:53.439Z,30
2017-10-15T08:08:02.284Z,30
2017-10-15T08:09:11.120Z,30
2017-10-15T08:10:19.958Z,30
2017-10-15T08:11:28.790Z,30
2017-10-15T08:12:37.630Z,30
2017-10-15T08:13:46.466Z,30
2017-10-15T08:14:55.302Z,30
2017-10-15T08:16:04.135Z,35
2017-10-15T08:17:12.969Z,35
2017-10-15T08:18:21.807Z,35
2017-10-15T08:19:30.653Z,35
2017-10-15T08:20:39.494Z,35
2017-10-15T08:21:48.323Z,35
2017-10-15T08:22:57.161Z,35
2017-10-15T08:24:05.991Z,35
2017-10-15T08:25:14.831Z,35
2017-10-15T08:26:23.674Z,35
2017-10-15T08:27:32.509Z,35
2017-10-15T08:28:41.342Z,35
2017-10-15T08:29:50.184Z,35
2017-10-15T08:30:59.030Z,35
2017-10-15T08:32:08.202Z,35
2017-10-15T08:33:17.044Z,35
2017-10-15T08:34:25.877Z,35
2017-10-15T08:35:34.710Z,35
2017-10-15T08:36:43.551Z,35
2017-10-15T08:37:52.387Z,35
2017-10-15T08:39:01.230Z,35
2017-10-15T08:40:10.067Z,35
2017-10-15T08:41:18.901Z,35
2017-10-15T08:42:27.736Z,35
2017-10-15T08:43:36.574Z,35
2017-10-15T08:44:45.409Z,40
2017-10-15T08:45:54.245Z,40
2017-10-15T08:47:03.084Z,35
2017-10-15T08:48:11.919Z,35
2017-10-15T08:49:20.759Z,40
2017-10-15T08:50:29.600Z,40
2017-10-15T08:51:38.432Z,35
2017-10-15T08:52:47.274Z,30
2017-10-15T08:53:56.113Z,35
2017-10-15T08:55:04.944Z,35
2017-10-15T08:56:13.784Z,40
2017-10-15T08:57:22.616Z,40
2017-10-15T08:58:31.459Z,40
2017-10-15T08:59:40.628Z,40
2017-10-15T09:00:49.469Z,40
2017-10-15T09:01:58.307Z,40
2017-10-15T09:03:07.147Z,40
2017-10-15T09:04:15.983Z,40
2017-10-15T09:05:24.818Z,40
2017-10-15T09:06:33.655Z,40
2017-10-15T09:07:42.504Z,40
2017-10-15T09:08:51.340Z,40
2017-10-15T09:10:00.178Z,40
2017-10-15T09:11:09.014Z,40
2017-10-15T09:12:17.851Z,40
2017-10-15T09:13:26.686Z,40
2017-10-15T09:14:35.523Z,40
2017-10-15T09:15:44.357Z,40
2017-10-15T09:16:53.200Z,40
2017-10-15T09:18:02.372Z,40
2017-10-15T09:19:11.206Z,40
2017-10-15T09:20:20.044Z,40
2017-10-15T09:21:28.880Z,40
2017-10-15T09:22:37.717Z,40
2017-10-15T09:23:46.558Z,40
2017-10-15T09:24:55.733Z,40
2017-10-15T09:26:04.568Z,40
2017-10-15T09:27:13.403Z,40
2017-10-15T09:28:22.236Z,40
2017-10-15T09:29:31.086Z,40
2017-10-15T09:30:39.921Z,40
2017-10-15T09:31:48.755Z,40
2017-10-15T09:32:57.603Z,40
2017-10-15T09:34:06.442Z,40
2017-10-15T09:35:15.278Z,40
2017-10-15T09:36:24.120Z,40
2017-10-15T09:37:32.964Z,40
2017-10-15T09:38:41.800Z,40
2017-10-15T09:39:50.636Z,40
2017-10-15T09:40:59.489Z,40
2017-10-15T09:42:08.318Z,40
2017-10-15T09:43:17.180Z,40
2017-10-15T09:44:26.314Z,40
2017-10-15T09:45:35.152Z,40
2017-10-15T09:46:43.997Z,40
2017-10-15T09:47:52.836Z,40
2017-10-15T09:49:01.677Z,40
2017-10-15T09:50:10.513Z,40
2017-10-15T09:51:19.350Z,40
2017-10-15T09:52:28.185Z,40
2017-10-15T09:53:37.030Z,40
2017-10-15T09:54:45.875Z,40
2017-10-15T09:55:54.759Z,40
2017-10-15T09:57:03.596Z,40
2017-10-15T09:58:12.443Z,40
2017-10-15T09:59:21.293Z,40
2017-10-15T10:00:30.560Z,40
2017-10-15T10:01:39.543Z,40
2017-10-15T10:02:48.379Z,40
2017-10-15T10:03:57.220Z,40
2017-10-15T10:05:06.393Z,40
2017-10-15T10:06:15.230Z,40
2017-10-15T10:07:24.074Z,40
2017-10-15T10:08:33.258Z,40
2017-10-15T10:09:42.105Z,40
2017-10-15T10:10:51.274Z,40
2017-10-15T10:12:00.188Z,40
2017-10-15T10:13:09.027Z,40
2017-10-15T10:14:17.865Z,40
2017-10-15T10:15:26.709Z,40
2017-10-15T10:16:36.007Z,40
2017-10-15T10:17:44.841Z,40
2017-10-15T10:18:53.684Z,40
2017-10-15T10:20:02.529Z,40
2017-10-15T10:21:11.368Z,40
2017-10-15T10:22:20.205Z,40
2017-10-15T10:23:29.053Z,40
2017-10-15T10:24:37.902Z,40
2017-10-15T10:25:46.745Z,40
2017-10-15T10:26:55.587Z,40
2017-10-15T10:28:04.423Z,40
2017-10-15T10:29:13.259Z,40
2017-10-15T10:30:22.099Z,40
2017-10-15T10:31:30.936Z,40
2017-10-15T10:32:39.781Z,40
2017-10-15T10:33:48.632Z,40
2017-10-15T10:34:57.468Z,40
2017-10-15T10:36:06.306Z,40
2017-10-15T10:37:15.150Z,40
2017-10-15T10:38:24.000Z,40
2017-10-15T10:39:32.834Z,40
2017-10-15T10:40:42.012Z,40
2017-10-15T10:41:51.181Z,40
2017-10-15T10:43:00.037Z,40
2017-10-15T10:44:08.880Z,40
2017-10-15T10:45:18.058Z,40
2017-10-15T10:46:26.895Z,40
2017-10-15T10:47:35.734Z,40
2017-10-15T10:48:44.577Z,40
2017-10-15T10:49:53.414Z,40
2017-10-15T10:51:02.255Z,40
2017-10-15T10:52:11.091Z,40
2017-10-15T10:53:19.936Z,40
2017-10-15T10:54:28.774Z,40
2017-10-15T10:55:37.616Z,40
2017-10-15T10:56:46.452Z,40
2017-10-15T10:57:55.294Z,40
2017-10-15T10:59:04.139Z,40
2017-10-15T11:00:12.987Z,40
2017-10-15T11:01:21.821Z,40
2017-10-15T11:02:30.654Z,40
2017-10-15T11:03:39.500Z,40
2017-10-15T11:04:48.339Z,40
2017-10-15T11:05:57.186Z,40
2017-10-15T11:07:06.026Z,40
2017-10-15T11:08:14.865Z,40
2017-10-15T11:09:23.705Z,40
2017-10-15T11:10:32.551Z,40
2017-10-15T11:11:41.733Z,35
2017-10-15T11:12:50.574Z,30
2017-10-15T11:13:59.412Z,35
2017-10-15T11:15:08.259Z,35
2017-10-15T11:16:17.094Z,30
2017-10-15T11:17:25.938Z,35
2017-10-15T11:18:34.780Z,35
2017-10-15T11:19:43.618Z,35
2017-10-15T11:20:52.456Z,45
2017-10-15T11:22:01.292Z,45
2017-10-15T11:23:10.131Z,45
2017-10-15T11:24:18.977Z,40
2017-10-15T11:25:27.813Z,40
2017-10-15T11:26:36.660Z,45
2017-10-15T11:27:45.505Z,40
2017-10-15T11:28:54.349Z,40
2017-10-15T11:30:03.191Z,40
2017-10-15T11:31:12.032Z,45
2017-10-15T11:32:20.878Z,40
2017-10-15T11:33:29.713Z,45
2017-10-15T11:34:38.555Z,40
2017-10-15T11:35:47.394Z,45
2017-10-15T11:36:56.231Z,40
2017-10-15T11:38:05.089Z,40
2017-10-15T11:39:13.930Z,40
2017-10-15T11:40:22.771Z,40
2017-10-15T11:41:31.615Z,40
2017-10-15T11:42:40.447Z,40
2017-10-15T11:43:49.284Z,40
2017-10-15T11:44:58.127Z,40
2017-10-15T11:46:06.978Z,40
2017-10-15T11:47:15.822Z,40
2017-10-15T11:48:24.666Z,40
2017-10-15T11:49:33.507Z,50
2017-10-15T11:50:42.348Z,40
2017-10-15T11:51:51.183Z,40
2017-10-15T11:53:00.026Z,40
2017-10-15T11:54:08.864Z,40
2017-10-15T11:55:17.702Z,40
2017-10-15T11:56:26.540Z,40
2017-10-15T11:57:35.379Z,40
2017-10-15T11:58:44.235Z,40
2017-10-15T11:59:53.065Z,40
2017-10-15T12:01:01.910Z,40
2017-10-15T12:02:10.749Z,40
2017-10-15T12:03:19.594Z,40
2017-10-15T12:04:28.431Z,40
2017-10-15T12:05:37.266Z,40
2017-10-15T12:06:46.112Z,40
2017-10-15T12:07:54.947Z,40
2017-10-15T12:09:03.794Z,40
2017-10-15T12:10:12.637Z,40
2017-10-15T12:11:21.483Z,40
2017-10-15T12:12:30.315Z,40
2017-10-15T12:13:39.272Z,40
2017-10-15T12:14:48.155Z,40
2017-10-15T12:15:57.015Z,40
2017-10-15T12:17:05.858Z,40
2017-10-15T12:18:14.697Z,35
2017-10-15T12:19:23.544Z,35
2017-10-15T12:20:32.383Z,35
2017-10-15T12:21:41.225Z,35
2017-10-15T12:22:50.063Z,35
2017-10-15T12:23:58.903Z,40
2017-10-15T12:25:07.741Z,40
2017-10-15T12:26:16.582Z,40
2017-10-15T12:27:25.486Z,35
2017-10-15T12:28:34.329Z,35
2017-10-15T12:29:43.170Z,35
2017-10-15T12:30:52.067Z,35
2017-10-15T12:32:01.209Z,35
2017-10-15T12:33:10.060Z,35
2017-10-15T12:34:18.891Z,35
2017-10-15T12:35:27.734Z,40
2017-10-15T12:36:36.568Z,45
2017-10-15T12:37:45.413Z,50
2017-10-15T12:38:54.255Z,40
2017-10-15T12:40:03.095Z,35
2017-10-15T12:41:11.937Z,35
2017-10-15T12:42:20.775Z,35
2017-10-15T12:43:29.622Z,35
2017-10-15T12:44:38.459Z,35
2017-10-15T12:45:47.308Z,35
2017-10-15T12:46:56.245Z,35
2017-10-15T12:48:05.193Z,30
2017-10-15T12:49:14.030Z,30
2017-10-15T12:50:22.871Z,35
2017-10-15T12:51:31.711Z,35
2017-10-15T12:52:40.570Z,20
2017-10-15T12:53:49.453Z,20
2017-10-15T12:54:58.485Z,20
2017-10-15T12:56:07.512Z,30
2017-10-15T12:57:16.364Z,20
2017-10-15T12:58:25.203Z,35
2017-10-15T12:59:34.045Z,35
2017-10-15T13:00:43.016Z,35
2017-10-15T13:01:51.887Z,35
2017-10-15T13:03:01.071Z,35
2017-10-15T13:04:09.957Z,30
2017-10-15T13:05:18.797Z,35
2017-10-15T13:06:27.824Z,50
2017-10-15T13:07:36.658Z,60
2017-10-15T13:08:45.912Z,65
2017-10-15T13:09:54.839Z,70
2017-10-15T13:11:03.722Z,75
2017-10-15T13:12:12.558Z,60
2017-10-15T13:13:21.400Z,50
2017-10-15T13:14:30.238Z,30
2017-10-15T13:15:39.080Z,30
2017-10-15T13:16:47.919Z,30
2017-10-15T13:17:56.763Z,30
2017-10-15T13:19:05.599Z,30
2017-10-15T13:20:14.434Z,30
2017-10-15T13:21:23.290Z,30
2017-10-15T13:22:32.133Z,35
2017-10-15T13:23:40.977Z,35
2017-10-15T13:24:49.816Z,35
2017-10-15T13:25:58.653Z,30
2017-10-15T13:27:07.494Z,30
2017-10-15T13:28:16.672Z,30
2017-10-15T13:29:25.509Z,30
2017-10-15T13:30:34.348Z,30
2017-10-15T13:31:43.190Z,30
2017-10-15T13:32:52.026Z,30
2017-10-15T13:34:01.213Z,30
2017-10-15T13:35:10.058Z,30
2017-10-15T13:36:18.900Z,30
2017-10-15T13:37:27.741Z,30
2017-10-15T13:38:36.580Z,30
2017-10-15T13:39:45.424Z,30
2017-10-15T13:40:54.262Z,30
2017-10-15T13:42:03.108Z,30
2017-10-15T13:43:11.958Z,30
2017-10-15T13:44:20.794Z,30
2017-10-15T13:45:29.639Z,25
2017-10-15T13:46:38.478Z,25
2017-10-15T13:47:47.315Z,25
2017-10-15T13:48:56.163Z,30
2017-10-15T13:50:05.004Z,30
2017-10-15T13:51:13.839Z,30
2017-10-15T13:52:22.682Z,30
2017-10-15T13:53:31.522Z,30
2017-10-15T13:54:40.365Z,30
2017-10-15T13:55:49.206Z,25
2017-10-15T13:56:58.048Z,25
2017-10-15T13:58:06.886Z,25
2017-10-15T13:59:16.069Z,25
2017-10-15T14:00:24.910Z,25
2017-10-15T14:01:34.018Z,25
2017-10-15T14:02:42.965Z,25
2017-10-15T14:03:51.810Z,25
2017-10-15T14:05:01.296Z,25
2017-10-15T14:06:10.136Z,25
2017-10-15T14:07:19.418Z,25
2017-10-15T14:08:28.401Z,20
2017-10-15T14:09:37.482Z,20
2017-10-15T14:10:46.381Z,20
2017-10-15T14:11:55.230Z,20
2017-10-15T14:13:04.074Z,20
2017-10-15T14:14:12.917Z,20
2017-10-15T14:15:22.169Z,20
2017-10-15T14:16:31.059Z,20
2017-10-15T14:17:40.103Z,20
2017-10-15T14:18:49.458Z,20
2017-10-15T14:19:58.811Z,20
2017-10-15T14:21:07.698Z,20
2017-10-15T14:22:16.657Z,20
2017-10-15T14:23:25.529Z,20
2017-10-15T14:24:34.473Z,20
2017-10-15T14:25:43.428Z,20
2017-10-15T14:26:52.381Z,20
2017-10-15T14:28:01.339Z,20
2017-10-15T14:29:10.353Z,20
2017-10-15T14:30:19.632Z,20
2017-10-15T14:31:28.546Z,20
2017-10-15T14:32:37.409Z,20
2017-10-15T14:33:46.373Z,20
2017-10-15T14:34:55.255Z,15
2017-10-15T14:36:04.093Z,15
2017-10-15T14:37:12.935Z,15
2017-10-15T14:38:22.138Z,15
2017-10-15T14:39:31.374Z,15
2017-10-15T14:40:40.213Z,15
2017-10-15T14:41:49.053Z,15
2017-10-15T14:42:57.895Z,15
2017-10-15T14:44:06.755Z,15
2017-10-15T14:45:15.577Z,15
2017-10-15T14:46:24.409Z,15
2017-10-15T14:47:33.248Z,15
2017-10-15T14:48:42.088Z,15
2017-10-15T14:49:50.928Z,15
2017-10-15T14:51:00.446Z,15
2017-10-15T14:52:09.284Z,15
2017-10-15T14:53:18.132Z,15
2017-10-15T14:54:26.973Z,15
2017-10-15T14:55:35.815Z,15
2017-10-15T14:56:44.657Z,15
2017-10-15T14:57:53.499Z,15
2017-10-15T14:59:02.335Z,10
2017-10-15T15:00:11.177Z,10
2017-10-15T15:01:20.015Z,10
2017-10-15T15:02:28.855Z,10
2017-10-15T15:03:37.701Z,10
2017-10-15T15:04:46.541Z,10
2017-10-15T15:05:55.682Z,10
2017-10-15T15:07:04.522Z,10
2017-10-15T15:08:13.448Z,10
2017-10-15T15:09:22.293Z,10
2017-10-15T15:10:31.135Z,10
2017-10-15T15:11:40.093Z,10
2017-10-15T15:12:48.988Z,10
2017-10-15T15:13:57.934Z,10
2017-10-15T15:15:06.778Z,10
2017-10-15T15:16:15.621Z,10
2017-10-15T15:17:24.454Z,10
2017-10-15T15:18:33.298Z,10
2017-10-15T15:19:42.141Z,10
2017-10-15T15:20:50.980Z,10
2017-10-15T15:21:59.933Z,10
2017-10-15T15:23:08.859Z,10
2017-10-15T15:24:17.753Z,10
2017-10-15T15:25:26.650Z,5
2017-10-15T15:26:35.696Z,5
2017-10-15T15:27:44.526Z,5
2017-10-15T15:28:53.759Z,5
2017-10-15T15:30:02.591Z,5
2017-10-15T15:31:11.508Z,5
2017-10-15T15:32:20.358Z,5
2017-10-15T15:33:29.211Z,5
2017-10-15T15:34:38.050Z,5
2017-10-15T15:35:46.895Z,5
2017-10-15T15:36:55.733Z,5
2017-10-15T15:38:04.612Z,5
2017-10-15T15:39:13.574Z,5
2017-10-15T15:40:22.414Z,5
2017-10-15T15:41:31.250Z,5
2017-10-15T15:42:40.158Z,5
2017-10-15T15:43:49.458Z,5
2017-10-15T15:44:58.386Z,5
2017-10-15T15:46:07.556Z,5
2017-10-15T15:47:16.640Z,5
2017-10-15T15:48:25.620Z,5
2017-10-15T15:49:34.575Z,5
2017-10-15T15:50:43.428Z,0
2017-10-15T15:51:52.274Z,0
2017-10-15T15:53:01.119Z,0
2017-10-15T15:54:09.961Z,0
2017-10-15T15:55:18.798Z,0
2017-10-15T15:56:27.634Z,0
2017-10-15T15:57:36.479Z,0
2017-10-15T15:58:45.317Z,0
2017-10-15T15:59:54.160Z,0
2017-10-15T16:01:03.004Z,0
2017-10-15T16:02:11.842Z,0
2017-10-15T16:03:21.034Z,0
2017-10-15T16:04:30.082Z,0
2017-10-15T16:05:38.922Z,0
2017-10-15T16:06:47.769Z,0
2017-10-15T16:07:56.599Z,0
2017-10-15T16:09:05.448Z,0
2017-10-15T16:10:14.488Z,0
2017-10-15T16:11:23.333Z,0
2017-10-15T16:12:32.171Z,0
2017-10-15T16:13:41.175Z,0
2017-10-15T16:14:50.033Z,0
2017-10-15T16:15:58.882Z,0
2017-10-15T16:17:07.746Z,0
2017-10-15T16:18:16.621Z,0
2017-10-15T16:19:25.487Z,0
2017-10-15T16:20:34.691Z,0
2017-10-15T16:21:43.561Z,0
2017-10-15T16:22:52.415Z,0
2017-10-15T16:24:01.273Z,0
2017-10-15T16:25:10.132Z,0
2017-10-15T16:26:19.000Z,0
2017-10-15T16:27:27.846Z,0
2017-10-15T16:28:36.715Z,0
2017-10-15T16:29:45.571Z,0
2017-10-15T16:30:54.432Z,0
2017-10-15T16:32:03.293Z,0
2017-10-15T16:33:12.155Z,0
2017-10-15T16:34:21.021Z,0
2017-10-15T16:35:29.872Z,0
2017-10-15T16:36:38.728Z,0
2017-10-15T16:37:47.582Z,0